sensor_id;sensor_type;location;lat;lon;timestamp;P1;durP1;ratioP1;P2;durP2;ratioP2
40939;SDS011;26666;50.156;7.700;2023-06-19T00:02:38;6.80;;;2.88;;
40939;SDS011;26666;50.156;7.700;2023-06-19T00:07:42;3.70;;;2.10;;
40939;SDS011;26666;50.156;7.700;2023-06-19T00:12:43;6.47;;;2.72;;
40939;SDS011;26666;50.156;7.700;2023-06-19T00:17:46;5.53;;;3.53;;
40939;SDS011;26666;50.156;7.700;2023-06-19T00:22:49;9.90;;;2.70;;
40939;SDS011;26666;50.156;7.700;2023-06-19T00:27:50;5.78;;;3.50;;
40939;SDS011;26666;50.156;7.700;2023-06-19T00:32:52;2.55;;;2.10;;
40939;SDS011;26666;50.156;7.700;2023-06-19T00:37:55;6.13;;;1.80;;
40939;SDS011;26666;50.156;7.700;2023-06-19T00:42:57;6.07;;;2.50;;
40939;SDS011;26666;50.156;7.700;2023-06-19T00:47:59;5.72;;;2.03;;
40939;SDS011;26666;50.156;7.700;2023-06-19T00:53:03;3.13;;;2.03;;
40939;SDS011;26666;50.156;7.700;2023-06-19T00:58:23;3.47;;;2.25;;
40939;SDS011;26666;50.156;7.700;2023-06-19T01:03:42;2.10;;;1.80;;
40939;SDS011;26666;50.156;7.700;2023-06-19T01:08:49;2.85;;;2.47;;
40939;SDS011;26666;50.156;7.700;2023-06-19T01:13:58;3.75;;;2.38;;
40939;SDS011;26666;50.156;7.700;2023-06-19T01:19:03;3.55;;;2.30;;
40939;SDS011;26666;50.156;7.700;2023-06-19T01:24:12;2.38;;;2.13;;
40939;SDS011;26666;50.156;7.700;2023-06-19T01:29:14;2.88;;;2.00;;
40939;SDS011;26666;50.156;7.700;2023-06-19T01:34:17;4.43;;;2.65;;
40939;SDS011;26666;50.156;7.700;2023-06-19T01:39:23;2.57;;;2.37;;
40939;SDS011;26666;50.156;7.700;2023-06-19T01:44:26;3.88;;;2.00;;
40939;SDS011;26666;50.156;7.700;2023-06-19T01:49:28;3.95;;;2.28;;
40939;SDS011;26666;50.156;7.700;2023-06-19T01:54:32;3.15;;;2.38;;
40939;SDS011;26666;50.156;7.700;2023-06-19T01:59:33;2.13;;;1.88;;
40939;SDS011;26666;50.156;7.700;2023-06-19T02:04:35;6.55;;;2.92;;
40939;SDS011;26666;50.156;7.700;2023-06-19T02:09:38;3.92;;;2.50;;
40939;SDS011;26666;50.156;7.700;2023-06-19T02:14:40;5.50;;;2.47;;
40939;SDS011;26666;50.156;7.700;2023-06-19T02:19:42;7.68;;;3.22;;
40939;SDS011;26666;50.156;7.700;2023-06-19T02:24:45;4.63;;;2.40;;
40939;SDS011;26666;50.156;7.700;2023-06-19T02:29:47;2.85;;;1.98;;
40939;SDS011;26666;50.156;7.700;2023-06-19T02:34:48;7.90;;;3.35;;
40939;SDS011;26666;50.156;7.700;2023-06-19T02:39:52;6.63;;;2.35;;
40939;SDS011;26666;50.156;7.700;2023-06-19T02:44:53;3.22;;;2.08;;
40939;SDS011;26666;50.156;7.700;2023-06-19T02:49:55;4.47;;;2.67;;
40939;SDS011;26666;50.156;7.700;2023-06-19T02:54:59;5.05;;;2.67;;
40939;SDS011;26666;50.156;7.700;2023-06-19T03:00:00;3.00;;;2.50;;
40939;SDS011;26666;50.156;7.700;2023-06-19T03:05:02;4.53;;;2.42;;
40939;SDS011;26666;50.156;7.700;2023-06-19T03:10:06;2.83;;;2.33;;
40939;SDS011;26666;50.156;7.700;2023-06-19T03:15:08;4.70;;;2.35;;
40939;SDS011;26666;50.156;7.700;2023-06-19T03:20:10;5.95;;;1.80;;
40939;SDS011;26666;50.156;7.700;2023-06-19T03:25:14;2.30;;;2.10;;
40939;SDS011;26666;50.156;7.700;2023-06-19T03:30:15;6.10;;;2.08;;
40939;SDS011;26666;50.156;7.700;2023-06-19T03:35:17;2.47;;;1.80;;
40939;SDS011;26666;50.156;7.700;2023-06-19T03:40:20;6.38;;;1.85;;
40939;SDS011;26666;50.156;7.700;2023-06-19T03:45:22;6.30;;;1.50;;
40939;SDS011;26666;50.156;7.700;2023-06-19T03:50:24;2.58;;;1.13;;
40939;SDS011;26666;50.156;7.700;2023-06-19T03:55:29;1.50;;;0.82;;
40939;SDS011;26666;50.156;7.700;2023-06-19T04:00:31;5.20;;;1.30;;
40939;SDS011;26666;50.156;7.700;2023-06-19T04:05:33;4.28;;;1.40;;
40939;SDS011;26666;50.156;7.700;2023-06-19T04:10:36;12.23;;;1.98;;
40939;SDS011;26666;50.156;7.700;2023-06-19T04:15:37;5.38;;;1.17;;
40939;SDS011;26666;50.156;7.700;2023-06-19T04:20:39;8.27;;;1.25;;
40939;SDS011;26666;50.156;7.700;2023-06-19T04:25:42;2.15;;;1.02;;
40939;SDS011;26666;50.156;7.700;2023-06-19T04:30:44;1.75;;;1.40;;
40939;SDS011;26666;50.156;7.700;2023-06-19T04:35:46;4.07;;;1.00;;
40939;SDS011;26666;50.156;7.700;2023-06-19T04:40:49;2.60;;;1.13;;
40939;SDS011;26666;50.156;7.700;2023-06-19T04:45:51;4.22;;;1.85;;
40939;SDS011;26666;50.156;7.700;2023-06-19T04:50:53;1.27;;;0.80;;
40939;SDS011;26666;50.156;7.700;2023-06-19T04:55:56;1.80;;;0.98;;
40939;SDS011;26666;50.156;7.700;2023-06-19T05:01:00;1.13;;;0.80;;
40939;SDS011;26666;50.156;7.700;2023-06-19T05:06:02;0.88;;;0.88;;
40939;SDS011;26666;50.156;7.700;2023-06-19T05:11:05;0.75;;;0.60;;
40939;SDS011;26666;50.156;7.700;2023-06-19T05:16:07;1.85;;;0.77;;
40939;SDS011;26666;50.156;7.700;2023-06-19T05:21:08;0.45;;;0.40;;
40939;SDS011;26666;50.156;7.700;2023-06-19T05:26:12;1.27;;;0.57;;
40939;SDS011;26666;50.156;7.700;2023-06-19T05:31:14;1.27;;;0.50;;
40939;SDS011;26666;50.156;7.700;2023-06-19T05:36:16;1.98;;;0.70;;
40939;SDS011;26666;50.156;7.700;2023-06-19T05:41:19;1.60;;;0.60;;
40939;SDS011;26666;50.156;7.700;2023-06-19T05:46:21;0.52;;;0.52;;
40939;SDS011;26666;50.156;7.700;2023-06-19T05:51:23;5.95;;;0.75;;
40939;SDS011;26666;50.156;7.700;2023-06-19T05:56:26;0.63;;;0.63;;
40939;SDS011;26666;50.156;7.700;2023-06-19T06:01:27;0.52;;;0.40;;
40939;SDS011;26666;50.156;7.700;2023-06-19T06:06:30;1.40;;;0.30;;
40939;SDS011;26666;50.156;7.700;2023-06-19T06:11:33;1.20;;;0.57;;
40939;SDS011;26666;50.156;7.700;2023-06-19T06:21:36;0.63;;;0.30;;
40939;SDS011;26666;50.156;7.700;2023-06-19T06:26:39;0.40;;;0.40;;
40939;SDS011;26666;50.156;7.700;2023-06-19T06:36:42;0.57;;;0.40;;
40939;SDS011;26666;50.156;7.700;2023-06-19T06:42:06;1.38;;;0.63;;
40939;SDS011;26666;50.156;7.700;2023-06-19T06:47:07;3.53;;;0.70;;
40939;SDS011;26666;50.156;7.700;2023-06-19T06:52:09;2.13;;;0.75;;
40939;SDS011;26666;50.156;7.700;2023-06-19T06:57:12;1.65;;;0.63;;
40939;SDS011;26666;50.156;7.700;2023-06-19T07:02:15;1.25;;;0.75;;
40939;SDS011;26666;50.156;7.700;2023-06-19T07:07:17;0.70;;;0.50;;
40939;SDS011;26666;50.156;7.700;2023-06-19T07:12:20;0.75;;;0.30;;
40939;SDS011;26666;50.156;7.700;2023-06-19T07:17:22;1.35;;;0.70;;
40939;SDS011;26666;50.156;7.700;2023-06-19T07:22:41;0.50;;;0.50;;
40939;SDS011;26666;50.156;7.700;2023-06-19T07:28:03;2.40;;;0.60;;
40939;SDS011;26666;50.156;7.700;2023-06-19T07:33:23;2.25;;;0.40;;
40939;SDS011;26666;50.156;7.700;2023-06-19T07:38:42;2.15;;;0.40;;
40939;SDS011;26666;50.156;7.700;2023-06-19T07:44:03;2.00;;;0.20;;
40939;SDS011;26666;50.156;7.700;2023-06-19T07:49:23;2.65;;;0.30;;
40939;SDS011;26666;50.156;7.700;2023-06-19T07:54:49;1.85;;;0.35;;
40939;SDS011;26666;50.156;7.700;2023-06-19T08:00:11;0.10;;;0.10;;
40939;SDS011;26666;50.156;7.700;2023-06-19T08:05:32;0.55;;;0.20;;
40939;SDS011;26666;50.156;7.700;2023-06-19T08:10:51;0.77;;;0.40;;
40939;SDS011;26666;50.156;7.700;2023-06-19T08:16:12;3.05;;;0.43;;
40939;SDS011;26666;50.156;7.700;2023-06-19T08:21:15;0.65;;;0.65;;
40939;SDS011;26666;50.156;7.700;2023-06-19T08:26:16;0.40;;;0.40;;
40939;SDS011;26666;50.156;7.700;2023-06-19T08:31:20;3.93;;;1.13;;
40939;SDS011;26666;50.156;7.700;2023-06-19T08:36:22;1.48;;;0.80;;
40939;SDS011;26666;50.156;7.700;2023-06-19T08:41:24;1.25;;;0.60;;
40939;SDS011;26666;50.156;7.700;2023-06-19T08:46:27;5.75;;;0.85;;
40939;SDS011;26666;50.156;7.700;2023-06-19T08:51:29;0.50;;;0.30;;
40939;SDS011;26666;50.156;7.700;2023-06-19T08:56:31;1.73;;;0.57;;
40939;SDS011;26666;50.156;7.700;2023-06-19T09:01:34;0.70;;;0.55;;
40939;SDS011;26666;50.156;7.700;2023-06-19T09:06:36;0.40;;;0.40;;
40939;SDS011;26666;50.156;7.700;2023-06-19T09:11:38;7.05;;;0.88;;
40939;SDS011;26666;50.156;7.700;2023-06-19T09:16:41;1.70;;;0.98;;
40939;SDS011;26666;50.156;7.700;2023-06-19T09:21:43;6.05;;;1.15;;
40939;SDS011;26666;50.156;7.700;2023-06-19T09:26:44;2.75;;;0.50;;
40939;SDS011;26666;50.156;7.700;2023-06-19T09:31:48;2.05;;;0.63;;
40939;SDS011;26666;50.156;7.700;2023-06-19T09:36:50;3.03;;;0.40;;
40939;SDS011;26666;50.156;7.700;2023-06-19T09:41:51;2.60;;;0.45;;
40939;SDS011;26666;50.156;7.700;2023-06-19T09:46:56;2.50;;;0.33;;
40939;SDS011;26666;50.156;7.700;2023-06-19T09:52:00;2.15;;;0.60;;
40939;SDS011;26666;50.156;7.700;2023-06-19T09:57:03;2.25;;;0.70;;
40939;SDS011;26666;50.156;7.700;2023-06-19T10:02:06;0.77;;;0.75;;
40939;SDS011;26666;50.156;7.700;2023-06-19T10:07:14;3.60;;;0.50;;
40939;SDS011;26666;50.156;7.700;2023-06-19T10:12:35;0.98;;;0.50;;
40939;SDS011;26666;50.156;7.700;2023-06-19T10:18:00;0.60;;;0.60;;
40939;SDS011;26666;50.156;7.700;2023-06-19T10:23:21;1.63;;;0.60;;
40939;SDS011;26666;50.156;7.700;2023-06-19T10:28:45;7.55;;;0.88;;
40939;SDS011;26666;50.156;7.700;2023-06-19T10:33:49;2.47;;;0.70;;
40939;SDS011;26666;50.156;7.700;2023-06-19T10:38:51;3.00;;;0.40;;
40939;SDS011;26666;50.156;7.700;2023-06-19T10:43:54;0.45;;;0.40;;
40939;SDS011;26666;50.156;7.700;2023-06-19T10:49:02;0.30;;;0.30;;
40939;SDS011;26666;50.156;7.700;2023-06-19T10:54:06;1.85;;;0.73;;
40939;SDS011;26666;50.156;7.700;2023-06-19T10:59:09;2.05;;;0.65;;
40939;SDS011;26666;50.156;7.700;2023-06-19T11:04:14;1.03;;;0.60;;
40939;SDS011;26666;50.156;7.700;2023-06-19T11:09:17;2.60;;;0.70;;
40939;SDS011;26666;50.156;7.700;2023-06-19T11:14:19;0.70;;;0.30;;
40939;SDS011;26666;50.156;7.700;2023-06-19T11:19:22;4.95;;;0.38;;
40939;SDS011;26666;50.156;7.700;2023-06-19T11:24:24;2.67;;;0.57;;
40939;SDS011;26666;50.156;7.700;2023-06-19T11:29:26;0.75;;;0.40;;
40939;SDS011;26666;50.156;7.700;2023-06-19T11:34:34;0.80;;;0.30;;
40939;SDS011;26666;50.156;7.700;2023-06-19T11:39:37;0.28;;;0.20;;
40939;SDS011;26666;50.156;7.700;2023-06-19T11:44:52;0.50;;;0.10;;
40939;SDS011;26666;50.156;7.700;2023-06-19T11:49:55;1.67;;;0.50;;
40939;SDS011;26666;50.156;7.700;2023-06-19T11:54:57;0.43;;;0.30;;
40939;SDS011;26666;50.156;7.700;2023-06-19T11:59:59;1.33;;;0.43;;
40939;SDS011;26666;50.156;7.700;2023-06-19T12:05:02;1.63;;;0.43;;
40939;SDS011;26666;50.156;7.700;2023-06-19T12:10:04;0.60;;;0.40;;
40939;SDS011;26666;50.156;7.700;2023-06-19T12:15:07;2.85;;;0.35;;
40939;SDS011;26666;50.156;7.700;2023-06-19T12:20:13;0.55;;;0.45;;
40939;SDS011;26666;50.156;7.700;2023-06-19T12:25:15;4.40;;;0.73;;
40939;SDS011;26666;50.156;7.700;2023-06-19T12:30:17;1.05;;;0.20;;
40939;SDS011;26666;50.156;7.700;2023-06-19T12:35:20;1.02;;;0.50;;
40939;SDS011;26666;50.156;7.700;2023-06-19T12:40:22;0.80;;;0.40;;
40939;SDS011;26666;50.156;7.700;2023-06-19T12:45:24;0.50;;;0.35;;
40939;SDS011;26666;50.156;7.700;2023-06-19T12:50:28;2.75;;;0.30;;
40939;SDS011;26666;50.156;7.700;2023-06-19T12:55:30;0.77;;;0.40;;
40939;SDS011;26666;50.156;7.700;2023-06-19T13:00:32;2.22;;;0.30;;
40939;SDS011;26666;50.156;7.700;2023-06-19T13:05:35;2.35;;;1.02;;
40939;SDS011;26666;50.156;7.700;2023-06-19T13:10:37;0.25;;;0.20;;
40939;SDS011;26666;50.156;7.700;2023-06-19T13:15:38;0.63;;;0.20;;
40939;SDS011;26666;50.156;7.700;2023-06-19T13:20:42;0.30;;;0.28;;
40939;SDS011;26666;50.156;7.700;2023-06-19T13:25:43;1.33;;;0.63;;
40939;SDS011;26666;50.156;7.700;2023-06-19T13:30:45;0.50;;;0.30;;
40939;SDS011;26666;50.156;7.700;2023-06-19T13:35:48;0.20;;;0.20;;
40939;SDS011;26666;50.156;7.700;2023-06-19T13:40:50;0.38;;;0.17;;
40939;SDS011;26666;50.156;7.700;2023-06-19T13:45:52;1.15;;;0.35;;
40939;SDS011;26666;50.156;7.700;2023-06-19T13:50:55;0.80;;;0.30;;
40939;SDS011;26666;50.156;7.700;2023-06-19T13:55:56;1.70;;;0.35;;
40939;SDS011;26666;50.156;7.700;2023-06-19T14:01:16;1.83;;;0.30;;
40939;SDS011;26666;50.156;7.700;2023-06-19T14:06:19;0.15;;;0.15;;
40939;SDS011;26666;50.156;7.700;2023-06-19T14:11:21;0.32;;;0.20;;
40939;SDS011;26666;50.156;7.700;2023-06-19T14:16:22;7.47;;;0.70;;
40939;SDS011;26666;50.156;7.700;2023-06-19T14:21:26;0.38;;;0.32;;
40939;SDS011;26666;50.156;7.700;2023-06-19T14:26:28;0.60;;;0.30;;
40939;SDS011;26666;50.156;7.700;2023-06-19T14:31:29;0.30;;;0.28;;
40939;SDS011;26666;50.156;7.700;2023-06-19T14:36:32;0.20;;;0.20;;
40939;SDS011;26666;50.156;7.700;2023-06-19T14:41:34;0.43;;;0.40;;
40939;SDS011;26666;50.156;7.700;2023-06-19T14:46:36;1.35;;;0.35;;
40939;SDS011;26666;50.156;7.700;2023-06-19T14:51:41;2.08;;;0.20;;
40939;SDS011;26666;50.156;7.700;2023-06-19T14:56:43;0.28;;;0.20;;
40939;SDS011;26666;50.156;7.700;2023-06-19T19:34:27;0.77;;;0.43;;
40939;SDS011;26666;50.156;7.700;2023-06-19T19:39:30;7.60;;;0.73;;
40939;SDS011;26666;50.156;7.700;2023-06-19T19:44:37;2.40;;;0.90;;
40939;SDS011;26666;50.156;7.700;2023-06-19T19:49:38;2.00;;;0.40;;
40939;SDS011;26666;50.156;7.700;2023-06-19T19:54:40;1.55;;;0.50;;
40939;SDS011;26666;50.156;7.700;2023-06-19T19:59:43;3.13;;;0.85;;
40939;SDS011;26666;50.156;7.700;2023-06-19T20:04:45;0.65;;;0.45;;
40939;SDS011;26666;50.156;7.700;2023-06-19T20:09:46;1.85;;;0.50;;
40939;SDS011;26666;50.156;7.700;2023-06-19T20:14:50;0.63;;;0.60;;
40939;SDS011;26666;50.156;7.700;2023-06-19T20:19:51;4.28;;;1.50;;
40939;SDS011;26666;50.156;7.700;2023-06-19T20:24:53;0.88;;;0.57;;
40939;SDS011;26666;50.156;7.700;2023-06-19T20:29:56;0.95;;;0.57;;
40939;SDS011;26666;50.156;7.700;2023-06-19T20:34:58;0.80;;;0.40;;
40939;SDS011;26666;50.156;7.700;2023-06-19T20:39:59;2.03;;;0.32;;
40939;SDS011;26666;50.156;7.700;2023-06-19T20:45:03;1.55;;;0.52;;
40939;SDS011;26666;50.156;7.700;2023-06-19T20:50:06;3.25;;;0.40;;
40939;SDS011;26666;50.156;7.700;2023-06-19T20:55:08;1.10;;;0.50;;
40939;SDS011;26666;50.156;7.700;2023-06-19T21:00:12;3.42;;;0.68;;
40939;SDS011;26666;50.156;7.700;2023-06-19T21:05:15;2.50;;;0.37;;
40939;SDS011;26666;50.156;7.700;2023-06-19T21:10:17;2.00;;;0.40;;
40939;SDS011;26666;50.156;7.700;2023-06-19T21:15:20;0.20;;;0.20;;
40939;SDS011;26666;50.156;7.700;2023-06-19T21:20:22;0.32;;;0.30;;
40939;SDS011;26666;50.156;7.700;2023-06-19T21:30:30;1.42;;;0.55;;
40939;SDS011;26666;50.156;7.700;2023-06-19T21:35:31;1.27;;;0.40;;
40939;SDS011;26666;50.156;7.700;2023-06-19T21:40:33;1.40;;;0.30;;
40939;SDS011;26666;50.156;7.700;2023-06-19T21:45:36;0.30;;;0.30;;
40939;SDS011;26666;50.156;7.700;2023-06-19T21:50:38;5.68;;;0.93;;
40939;SDS011;26666;50.156;7.700;2023-06-19T21:55:40;0.52;;;0.30;;
40939;SDS011;26666;50.156;7.700;2023-06-19T22:00:43;1.75;;;0.22;;
40939;SDS011;26666;50.156;7.700;2023-06-19T22:05:45;0.77;;;0.50;;
40939;SDS011;26666;50.156;7.700;2023-06-19T22:10:47;2.28;;;0.45;;
40939;SDS011;26666;50.156;7.700;2023-06-19T22:15:50;0.52;;;0.32;;
40939;SDS011;26666;50.156;7.700;2023-06-19T22:20:52;3.50;;;0.30;;
40939;SDS011;26666;50.156;7.700;2023-06-19T22:25:53;2.97;;;0.75;;
40939;SDS011;26666;50.156;7.700;2023-06-19T22:30:56;2.25;;;0.73;;
40939;SDS011;26666;50.156;7.700;2023-06-19T22:35:58;1.13;;;0.85;;
40939;SDS011;26666;50.156;7.700;2023-06-19T22:41:00;1.52;;;0.32;;
40939;SDS011;26666;50.156;7.700;2023-06-19T22:46:03;0.65;;;0.38;;
40939;SDS011;26666;50.156;7.700;2023-06-19T22:51:05;0.38;;;0.30;;
40939;SDS011;26666;50.156;7.700;2023-06-19T22:56:06;1.10;;;0.52;;
40939;SDS011;26666;50.156;7.700;2023-06-19T23:01:09;1.65;;;0.93;;
40939;SDS011;26666;50.156;7.700;2023-06-19T23:06:11;2.05;;;0.52;;
40939;SDS011;26666;50.156;7.700;2023-06-19T23:11:13;0.80;;;0.32;;
40939;SDS011;26666;50.156;7.700;2023-06-19T23:16:16;0.73;;;0.30;;
40939;SDS011;26666;50.156;7.700;2023-06-19T23:21:18;1.40;;;0.80;;
40939;SDS011;26666;50.156;7.700;2023-06-19T23:26:20;1.42;;;0.47;;
40939;SDS011;26666;50.156;7.700;2023-06-19T23:31:23;1.55;;;0.50;;
40939;SDS011;26666;50.156;7.700;2023-06-19T23:36:25;2.08;;;0.60;;
40939;SDS011;26666;50.156;7.700;2023-06-19T23:41:27;2.38;;;0.63;;
40939;SDS011;26666;50.156;7.700;2023-06-19T23:46:30;1.13;;;0.73;;
40939;SDS011;26666;50.156;7.700;2023-06-19T23:51:32;0.65;;;0.52;;
40939;SDS011;26666;50.156;7.700;2023-06-19T23:56:34;0.98;;;0.50;;
